Time;durP1;ratioP1;P1;durP2;ratioP2;P2;SDS_P1;SDS_P2;PMS_P1;PMS_P2;Temp;Humidity;BMP_temperature;BMP_pressure;BME280_temperature;BME280_humidity;BME280_pressure;Samples;Min_cycle;Max_cycle;Signal;HPM_P1;HPM_P2
2022/07/18 00:01:49;;;;;;;16.63;7.10;;;;;;;21.66;100.00;95104.66;5003124;28;20038;-90
2022/07/18 00:04:17;;;;;;;11.30;6.53;;;;;;;21.63;100.00;95099.94;5019162;28;20026;-91
2022/07/18 00:06:42;;;;;;;12.55;6.30;;;;;;;21.63;100.00;95099.94;5019096;28;20025;-90
2022/07/18 00:09:08;;;;;;;9.10;6.28;;;;;;;21.58;100.00;95096.34;5002925;28;20438;-91
2022/07/18 00:11:39;;;;;;;10.43;6.32;;;;;;;21.85;100.00;95105.06;5003107;28;20028;-90
2022/07/18 00:14:04;;;;;;;11.27;6.13;;;;;;;22.05;100.00;95104.66;5002834;28;20029;-90
2022/07/18 00:16:30;;;;;;;14.20;6.78;;;;;;;21.87;100.00;95107.38;5003045;28;20030;-90
2022/07/18 00:18:58;;;;;;;16.02;6.50;;;;;;;21.70;100.00;95102.94;5002682;28;20030;-91
2022/07/18 00:21:26;;;;;;;10.60;6.25;;;;;;;22.01;100.00;95096.50;5003065;28;20351;-90
2022/07/18 00:23:54;;;;;;;9.70;5.85;;;;;;;22.07;100.00;95105.09;5002701;28;20026;-90
2022/07/18 00:26:21;;;;;;;8.57;5.78;;;;;;;22.15;100.00;95098.91;5019148;28;20040;-91
2022/07/18 00:28:47;;;;;;;12.43;5.68;;;;;;;22.18;100.00;95104.41;5003064;28;20029;-90
2022/07/18 00:31:16;;;;;;;15.07;5.63;;;;;;;21.88;100.00;95107.06;5002920;28;20084;-90
2022/07/18 00:33:41;;;;;;;11.05;6.13;;;;;;;21.57;100.00;95096.66;5002877;28;20032;-91
2022/07/18 00:36:06;;;;;;;14.75;6.20;;;;;;;21.56;100.00;95097.75;5002857;28;20416;-90
2022/07/18 00:38:35;;;;;;;9.68;6.28;;;;;;;21.61;100.00;95095.72;5002684;28;20087;-90
2022/07/18 00:41:03;;;;;;;13.15;6.20;;;;;;;21.64;100.00;95099.63;5003119;28;20026;-90
2022/07/18 00:43:28;;;;;;;11.57;6.45;;;;;;;21.90;100.00;95104.09;5018361;28;20026;-90
2022/07/18 00:45:56;;;;;;;12.68;6.68;;;;;;;21.73;100.00;95094.28;5002142;28;20032;-90
2022/07/18 00:48:24;;;;;;;9.85;5.80;;;;;;;21.64;100.00;95101.50;5018450;28;20029;-91
2022/07/18 00:50:49;;;;;;;12.45;6.30;;;;;;;21.57;100.00;95094.00;5018423;28;20037;-90
2022/07/18 00:53:17;;;;;;;12.52;6.60;;;;;;;21.82;100.00;95094.25;5002132;28;20232;-91
2022/07/18 00:55:47;;;;;;;12.95;6.20;;;;;;;21.77;100.00;95095.19;5002372;28;20030;-90
2022/07/18 00:58:25;;;;;;;;;;;;;;;;;;;;;
2022/07/18 01:03:37;;;;;;;9.93;6.82;;;;;;;21.39;100.00;95093.28;5018188;28;20331;-90
2022/07/18 01:06:03;;;;;;;14.95;6.43;;;;;;;21.26;100.00;95098.50;5001850;28;20030;-91
2022/07/18 01:08:28;;;;;;;13.23;6.13;;;;;;;21.17;100.00;95095.06;5001998;28;20040;-91
2022/07/18 01:10:54;;;;;;;14.25;6.72;;;;;;;21.05;100.00;95098.38;5001720;28;20390;-91
2022/07/18 01:13:20;;;;;;;13.52;6.35;;;;;;;21.10;100.00;95105.44;5001385;28;20502;-90
2022/07/18 01:15:45;;;;;;;12.80;6.05;;;;;;;21.36;100.00;95104.56;5017791;28;20041;-90
2022/07/18 01:18:11;;;;;;;9.27;5.75;;;;;;;21.45;100.00;95095.47;5019215;28;20505;-91
2022/07/18 01:20:36;;;;;;;11.45;6.18;;;;;;;21.10;100.00;95095.56;5001548;28;20030;-90
2022/07/18 01:23:04;;;;;;;11.13;6.05;;;;;;;20.91;100.00;95103.88;5020548;28;20025;-91
2022/07/18 01:25:30;;;;;;;12.75;5.75;;;;;;;20.74;100.00;95102.78;5013136;28;20033;-90
2022/07/18 01:27:56;;;;;;;11.15;6.40;;;;;;;20.71;100.00;95100.75;5021388;28;20029;-91
2022/07/18 01:30:30;;;;;;;10.45;5.38;;;;;;;20.94;100.00;95097.91;5031928;28;20439;-90
2022/07/18 01:33:02;;;;;;;15.63;6.20;;;;;;;20.86;100.00;95099.50;5002244;28;20022;-91
2022/07/18 01:35:29;;;;;;;13.65;6.30;;;;;;;20.85;100.00;95103.25;5017598;28;20041;-91
2022/07/18 01:37:57;;;;;;;10.50;5.53;;;;;;;20.81;100.00;95099.66;5001500;28;20026;-90
2022/07/18 01:40:23;;;;;;;10.20;5.88;;;;;;;20.86;100.00;95099.50;5001017;28;20030;-90
2022/07/18 01:42:48;;;;;;;15.32;6.40;;;;;;;20.88;100.00;95104.50;5001267;28;20030;-89
2022/07/18 01:45:15;;;;;;;9.55;5.82;;;;;;;21.14;100.00;95096.47;5001537;28;20029;-90
2022/07/18 01:47:41;;;;;;;10.77;5.80;;;;;;;20.99;100.00;95094.31;5001346;28;20029;-90
2022/07/18 01:50:08;;;;;;;8.77;6.07;;;;;;;21.05;100.00;95098.38;5000889;28;20036;-90
2022/07/18 01:52:36;;;;;;;12.57;6.35;;;;;;;21.27;100.00;95094.75;5018201;28;20053;-90
2022/07/18 01:55:05;;;;;;;9.02;5.65;;;;;;;21.18;100.00;95092.09;5000802;28;20041;-90
2022/07/18 01:57:32;;;;;;;13.13;6.65;;;;;;;21.04;100.00;95092.25;5016141;28;20029;-90
2022/07/18 01:59:58;;;;;;;13.10;6.70;;;;;;;21.23;100.00;95093.81;5016965;28;20037;-90
2022/07/18 02:02:24;;;;;;;11.80;6.28;;;;;;;21.11;100.00;95094.44;5016778;28;20030;-90
2022/07/18 02:05:03;;;;;;;10.65;5.68;;;;;;;21.26;100.00;95095.03;5016642;28;20057;-90
2022/07/18 02:07:43;;;;;;;17.67;7.38;;;;;;;21.15;100.00;95092.72;5017236;28;20030;-90
2022/07/18 02:10:13;;;;;;;16.35;6.70;;;;;;;20.95;100.00;95098.72;5000851;28;20025;-89
2022/07/18 02:12:39;;;;;;;10.38;6.10;;;;;;;20.89;100.00;95095.44;5000571;28;20088;-90
2022/07/18 02:15:06;;;;;;;16.60;6.00;;;;;;;21.09;100.00;95094.00;5000308;28;20038;-90
2022/07/18 02:17:31;;;;;;;13.73;6.03;;;;;;;20.97;100.00;95091.97;5000764;28;20088;-90
2022/07/18 02:19:57;;;;;;;15.00;6.70;;;;;;;20.83;100.00;95091.38;5016614;28;20030;-91
2022/07/18 02:22:28;;;;;;;11.85;6.50;;;;;;;20.77;100.00;95088.06;5000105;28;20494;-90
2022/07/18 02:24:54;;;;;;;10.50;6.07;;;;;;;21.02;100.00;95088.38;5016447;28;20033;-90
2022/07/18 02:27:22;;;;;;;9.85;5.75;;;;;;;20.82;100.00;95087.16;5000132;28;20026;-90
2022/07/18 02:29:57;;;;;;;;;;;;;;;;;;;;;
2022/07/18 02:32:23;;;;;;;14.95;6.90;;;;;;;20.43;100.00;95082.41;5016515;28;20024;-90
2022/07/18 02:34:49;;;;;;;12.30;7.63;;;;;;;20.25;100.00;95083.50;5000074;28;20120;-91
2022/07/18 02:37:14;;;;;;;12.10;7.05;;;;;;;20.23;100.00;95077.69;5000055;28;20025;-89
2022/07/18 02:39:40;;;;;;;13.68;7.45;;;;;;;20.17;100.00;95087.72;5016416;28;20036;-90
2022/07/18 02:42:05;;;;;;;8.35;6.65;;;;;;;20.33;100.00;95090.69;5000059;28;20422;-90
2022/07/18 02:44:31;;;;;;;14.20;6.85;;;;;;;20.52;100.00;95093.06;4999947;28;20021;-90
2022/07/18 02:46:56;;;;;;;10.55;6.70;;;;;;;20.67;100.00;95093.69;4999993;28;20403;-90
2022/07/18 02:49:31;;;;;;;12.65;6.35;;;;;;;20.64;100.00;95097.75;5016550;28;20386;-90
2022/07/18 02:52:00;;;;;;;11.13;6.60;;;;;;;20.18;100.00;95100.69;5001392;28;20026;-90
2022/07/18 02:54:26;;;;;;;11.40;6.63;;;;;;;20.13;100.00;95100.84;4999746;28;20018;-91
2022/07/18 02:56:52;;;;;;;13.88;6.80;;;;;;;20.32;100.00;95099.78;5015969;28;20025;-89
2022/07/18 02:59:17;;;;;;;18.25;6.75;;;;;;;20.44;100.00;95102.63;5001806;28;20026;-90
2022/07/18 03:01:43;;;;;;;10.25;6.40;;;;;;;20.65;100.00;95104.66;5019221;28;20458;-90
2022/07/18 03:04:08;;;;;;;17.80;6.88;;;;;;;20.49;100.00;95099.03;5008848;28;20030;-90
2022/07/18 03:06:34;;;;;;;11.07;6.57;;;;;;;20.34;100.00;95092.25;5023112;28;20071;-90
2022/07/18 03:08:59;;;;;;;14.43;7.13;;;;;;;20.25;100.00;95099.47;5018492;28;20147;-91
2022/07/18 03:11:27;;;;;;;15.07;7.90;;;;;;;20.28;100.00;95096.19;5008885;28;20029;-90
2022/07/18 03:14:01;;;;;;;19.58;7.63;;;;;;;20.31;100.00;95100.88;5018951;28;20032;-91
2022/07/18 03:16:29;;;;;;;10.50;6.78;;;;;;;20.59;100.00;95103.25;5018463;28;20040;-90
2022/07/18 03:18:55;;;;;;;12.93;7.45;;;;;;;20.61;100.00;95111.69;5015807;28;20030;-90
2022/07/18 03:21:28;;;;;;;11.10;6.70;;;;;;;20.67;100.00;95104.34;4999701;28;20052;-91
2022/07/18 03:23:56;;;;;;;20.47;7.80;;;;;;;20.44;100.00;95107.94;5000240;28;20044;-92
2022/07/18 03:26:39;;;;;;;18.80;7.38;;;;;;;20.14;100.00;95105.09;5030355;28;20116;-91
2022/07/18 03:29:20;;;;;;;19.60;8.48;;;;;;;20.17;100.00;95103.69;5022023;28;20025;-91
2022/07/18 03:31:56;;;;;;;;;;;;;;;;;;;;;
2022/07/18 03:34:29;;;;;;;12.65;7.57;;;;;;;20.22;100.00;95105.41;5035513;28;20020;-92
2022/07/18 03:36:54;;;;;;;13.57;7.57;;;;;;;20.33;100.00;95109.31;5020340;28;20033;-90
2022/07/18 03:39:20;;;;;;;13.40;7.57;;;;;;;20.25;100.00;95110.88;5019498;28;20256;-91
2022/07/18 03:41:45;;;;;;;13.13;6.90;;;;;;;20.21;100.00;95109.94;5035494;28;20025;-91
2022/07/18 03:44:11;;;;;;;11.95;7.13;;;;;;;20.50;100.00;95113.88;5019117;28;20018;-91
2022/07/18 03:46:37;;;;;;;14.23;6.93;;;;;;;20.47;100.00;95115.28;5035532;28;20025;-91
2022/07/18 03:49:02;;;;;;;11.88;7.03;;;;;;;20.45;100.00;95117.47;5035423;28;20025;-92
2022/07/18 03:51:35;;;;;;;10.77;7.05;;;;;;;20.53;100.00;95115.16;5019085;28;20124;-92
2022/07/18 03:54:03;;;;;;;11.60;7.22;;;;;;;20.59;100.00;95114.69;5018927;28;20025;-91
2022/07/18 03:56:28;;;;;;;11.85;6.80;;;;;;;20.56;100.00;95117.97;5019254;28;20041;-91
2022/07/18 03:58:54;;;;;;;14.35;7.95;;;;;;;20.13;100.00;95116.03;5018973;28;20025;-91
2022/07/18 04:01:33;;;;;;;15.38;7.30;;;;;;;19.92;100.00;95120.03;5035309;28;20033;-91
2022/07/18 04:03:58;;;;;;;17.80;6.88;;;;;;;20.07;100.00;95112.72;5019268;28;20442;-91
2022/07/18 04:06:24;;;;;;;15.85;6.95;;;;;;;20.16;100.00;95116.19;5035317;28;20028;-91
2022/07/18 04:08:52;;;;;;;9.73;6.63;;;;;;;20.36;100.00;95115.91;5018891;28;20021;-90
2022/07/18 04:11:26;;;;;;;10.35;7.00;;;;;;;20.43;100.00;95110.91;5018845;28;20380;-91
2022/07/18 04:13:53;;;;;;;11.27;6.88;;;;;;;20.52;100.00;95113.59;5035801;28;20056;-86
2022/07/18 04:16:19;;;;;;;17.77;7.75;;;;;;;20.03;100.00;95115.22;5034921;28;20354;-86
2022/07/18 04:18:44;;;;;;;14.77;7.85;;;;;;;19.94;100.00;95129.56;5019143;28;20116;-86
2022/07/18 04:21:10;;;;;;;12.02;7.47;;;;;;;20.09;100.00;95123.84;5020714;28;20148;-87
2022/07/18 04:23:35;;;;;;;11.38;7.35;;;;;;;20.37;100.00;95126.25;5022312;28;20019;-87
2022/07/18 04:26:01;;;;;;;14.57;7.15;;;;;;;20.32;100.00;95123.72;5038674;28;20025;-87
2022/07/18 04:28:26;;;;;;;14.68;7.20;;;;;;;20.58;100.00;95125.63;5038638;28;20060;-87
2022/07/18 04:30:52;;;;;;;19.38;7.38;;;;;;;20.65;100.00;95122.50;5021678;28;20060;-86
2022/07/18 04:33:17;;;;;;;12.80;6.88;;;;;;;20.80;100.00;95130.03;5038287;28;20457;-86
2022/07/18 04:35:43;;;;;;;13.10;6.78;;;;;;;20.74;100.00;95133.94;5038222;28;20037;-87
2022/07/18 04:38:10;;;;;;;14.70;7.07;;;;;;;20.79;100.00;95131.13;5038421;28;20029;-87
2022/07/18 04:40:36;;;;;;;12.55;6.38;;;;;;;21.04;100.00;95129.56;5038071;28;20032;-86
2022/07/18 04:43:03;;;;;;;9.23;6.55;;;;;;;21.09;100.00;95133.16;5039142;28;20021;-86
2022/07/18 04:45:29;;;;;;;11.10;6.88;;;;;;;20.57;100.00;95135.50;5038072;28;20036;-87
2022/07/18 04:47:55;;;;;;;12.15;7.22;;;;;;;20.49;100.00;95137.06;5038302;28;20025;-86
2022/07/18 04:50:21;;;;;;;10.40;7.10;;;;;;;20.87;100.00;95134.91;5037923;28;20025;-86
2022/07/18 04:52:48;;;;;;;16.15;7.97;;;;;;;20.73;100.00;95135.81;5037699;28;20026;-86
2022/07/18 04:55:16;;;;;;;13.40;7.47;;;;;;;20.72;100.00;95131.59;5037919;28;20025;-86
2022/07/18 04:57:42;;;;;;;15.27;6.90;;;;;;;20.56;100.00;95133.16;5038047;28;20338;-87
2022/07/18 05:00:11;;;;;;;10.05;6.82;;;;;;;20.98;100.00;95140.69;5019159;28;20037;-87
2022/07/18 05:02:45;;;;;;;10.52;6.68;;;;;;;21.21;100.00;95138.63;5037623;28;20509;-87
2022/07/18 05:05:12;;;;;;;11.35;6.93;;;;;;;21.40;100.00;95134.84;5026191;28;20026;-86
2022/07/18 05:07:39;;;;;;;11.40;6.25;;;;;;;21.47;100.00;95135.13;5017884;28;20025;-87
2022/07/18 05:10:07;;;;;;;17.10;7.25;;;;;;;21.63;100.00;95137.25;5001605;28;20029;-87
2022/07/18 05:12:42;;;;;;;10.27;6.57;;;;;;;21.59;100.00;95142.44;5002057;28;20451;-86
2022/07/18 05:15:10;;;;;;;13.52;7.10;;;;;;;21.21;100.00;95135.19;5025772;28;20069;-87
2022/07/18 05:17:36;;;;;;;13.65;7.18;;;;;;;20.93;100.00;95136.31;5037613;28;20033;-86
2022/07/18 05:20:03;;;;;;;10.18;6.93;;;;;;;20.97;100.00;95125.81;5018035;28;20350;-87
2022/07/18 05:22:29;;;;;;;10.30;6.20;;;;;;;21.61;100.00;95129.59;5017835;28;20060;-87
2022/07/18 05:24:57;;;;;;;10.20;6.47;;;;;;;21.66;100.00;95132.13;5017680;28;20025;-87
2022/07/18 05:27:22;;;;;;;15.65;6.72;;;;;;;21.94;100.00;95137.03;5017779;28;20431;-86
2022/07/18 05:29:47;;;;;;;12.02;6.47;;;;;;;22.07;100.00;95137.88;5017595;28;20025;-87
2022/07/18 05:32:13;;;;;;;8.82;6.75;;;;;;;22.07;100.00;95129.88;5017565;28;20423;-88
2022/07/18 05:34:38;;;;;;;12.45;6.47;;;;;;;22.11;100.00;95133.50;5017242;28;20115;-88
2022/07/18 05:37:07;;;;;;;10.95;6.32;;;;;;;22.02;100.00;95125.53;5017492;28;20092;-87
2022/07/18 05:39:32;;;;;;;10.63;6.50;;;;;;;22.39;100.00;95129.56;5018698;28;20025;-87
2022/07/18 05:41:58;;;;;;;10.23;6.40;;;;;;;22.59;100.00;95126.16;5017601;28;20037;-86
2022/07/18 05:44:23;;;;;;;14.10;6.20;;;;;;;22.40;100.00;95129.25;5017095;28;20054;-86
2022/07/18 05:46:49;;;;;;;10.18;6.65;;;;;;;22.44;100.00;95126.69;5017141;28;20057;-86
2022/07/18 05:49:15;;;;;;;11.98;6.38;;;;;;;22.11;100.00;95130.81;5017039;28;20493;-86
2022/07/18 05:51:41;;;;;;;14.57;6.75;;;;;;;22.00;100.00;95130.38;5021359;28;20340;-86
2022/07/18 05:54:06;;;;;;;7.93;5.63;;;;;;;22.67;100.00;95129.88;5024997;28;20103;-86
2022/07/18 05:56:32;;;;;;;10.38;6.30;;;;;;;22.61;100.00;95131.16;5019568;28;20037;-87
2022/07/18 05:58:57;;;;;;;18.92;6.90;;;;;;;22.92;100.00;95137.97;5020664;28;20025;-87
2022/07/18 06:01:23;;;;;;;13.27;6.40;;;;;;;23.17;100.00;95135.41;5036864;28;20087;-86
2022/07/18 06:03:49;;;;;;;12.65;5.90;;;;;;;23.35;100.00;95138.72;5020113;28;20032;-86
2022/07/18 06:06:15;;;;;;;12.18;5.45;;;;;;;23.50;100.00;95147.97;5021863;28;20431;-86
2022/07/18 06:08:41;;;;;;;8.88;5.65;;;;;;;23.19;100.00;95143.09;5016579;28;20025;-86
2022/07/18 06:11:13;;;;;;;11.57;6.38;;;;;;;23.38;100.00;95145.28;5017798;28;20343;-86
2022/07/18 06:13:42;;;;;;;8.85;6.20;;;;;;;23.59;100.00;95145.22;5000249;28;20029;-87
2022/07/18 06:16:10;;;;;;;9.15;5.97;;;;;;;23.78;100.00;95150.03;5033254;28;20092;-86
2022/07/18 06:18:36;;;;;;;7.78;5.85;;;;;;;23.61;100.00;95142.22;5036478;28;20343;-87
2022/07/18 06:21:02;;;;;;;11.35;6.38;;;;;;;23.86;100.00;95146.50;5036548;28;20033;-87
2022/07/18 06:23:30;;;;;;;10.90;5.97;;;;;;;23.75;100.00;95147.25;5036413;28;20030;-86
2022/07/18 06:25:59;;;;;;;8.25;6.00;;;;;;;24.08;100.00;95149.84;5036175;28;20438;-87
2022/07/18 06:28:35;;;;;;;;;;;;;;;;;;;;;
2022/07/18 06:31:11;;;;;;;;;;;;;;;;;;;;;
2022/07/18 06:33:47;;;;;;;;;;;;;;;;;;;;;
2022/07/18 06:36:23;;;;;;;;;;;;;;;;;;;;;
2022/07/18 06:39:09;;;;;;;;;;;;;;;;;;;;;
2022/07/18 06:41:45;;;;;;;;;;;;;;;;;;;;;
2022/07/18 06:44:15;;;;;;;11.05;6.00;;;;;;;24.35;100.00;95144.16;5035889;28;20021;-93
2022/07/18 06:47:05;;;;;;;;;;;;;;;;;;;;;
2022/07/18 06:49:34;;;;;;;8.50;5.60;;;;;;;24.82;100.00;95143.63;5036228;28;20027;-91
2022/07/18 06:52:09;;;;;;;11.48;6.05;;;;;;;24.66;100.00;95135.50;5035996;28;20025;-90
2022/07/18 06:54:37;;;;;;;11.38;5.50;;;;;;;25.08;100.00;95150.47;5020766;28;20060;-90
2022/07/18 06:57:06;;;;;;;9.52;5.55;;;;;;;24.75;100.00;95147.97;5035844;28;20029;-90
2022/07/18 06:59:32;;;;;;;10.43;6.13;;;;;;;25.00;100.00;95143.34;5035897;28;20025;-91
2022/07/18 07:01:58;;;;;;;10.00;5.63;;;;;;;25.38;100.00;95149.31;5036195;28;20052;-91
2022/07/18 07:04:26;;;;;;;11.13;6.05;;;;;;;25.30;100.00;95142.22;5036830;28;20434;-91
2022/07/18 07:06:58;;;;;;;11.57;5.50;;;;;;;25.46;100.00;95150.28;5035680;28;20029;-90
2022/07/18 07:09:26;;;;;;;7.22;5.00;;;;;;;25.66;100.00;95146.63;5036887;28;20087;-90
2022/07/18 07:11:54;;;;;;;11.23;5.10;;;;;;;25.60;100.00;95144.53;5035488;28;20060;-90
2022/07/18 07:14:20;;;;;;;8.45;4.95;;;;;;;25.52;100.00;95151.63;5035435;28;20052;-90
2022/07/18 07:16:45;;;;;;;7.32;5.15;;;;;;;25.77;100.00;95148.78;5037252;28;20071;-91
2022/07/18 07:19:10;;;;;;;13.35;4.90;;;;;;;25.81;100.00;95152.34;5036243;28;20076;-91
2022/07/18 07:21:36;;;;;;;8.75;4.85;;;;;;;25.89;100.00;95155.97;5035590;28;20461;-91
2022/07/18 07:24:04;;;;;;;5.72;4.38;;;;;;;25.85;100.00;95165.84;5019376;28;20025;-90
2022/07/18 07:26:31;;;;;;;5.40;3.80;;;;;;;26.13;92.91;95156.91;5019353;28;20122;-91
2022/07/18 07:28:59;;;;;;;10.05;4.30;;;;;;;25.69;87.62;95159.34;5019450;28;20350;-91
2022/07/18 07:31:27;;;;;;;5.63;3.63;;;;;;;26.06;86.16;95163.66;5019764;28;20029;-88
2022/07/18 07:33:52;;;;;;;6.20;3.80;;;;;;;25.75;81.36;95162.53;5019740;28;20044;-91
2022/07/18 07:36:25;;;;;;;3.55;2.83;;;;;;;25.88;74.74;95163.22;5019298;28;20038;-92
2022/07/18 07:38:50;;;;;;;8.13;3.23;;;;;;;25.54;74.27;95160.09;5019972;28;20032;-90
2022/07/18 07:41:26;;;;;;;;;;;;;;;;;;;;;
2022/07/18 07:43:54;;;;;;;7.05;3.45;;;;;;;26.08;79.29;95161.41;5035306;28;20018;-90
2022/07/18 07:46:21;;;;;;;5.25;3.35;;;;;;;26.13;75.44;95159.59;5019132;28;20029;-91
2022/07/18 07:48:59;;;;;;;;;;;;;;;;;;;;;
2022/07/18 07:52:04;;;;;;;7.03;3.63;;;;;;;26.39;75.71;95159.06;5037458;28;20020;-94
2022/07/18 07:54:41;;;;;;;7.15;3.05;;;;;;;26.48;73.36;95161.53;5037095;28;20029;-93
2022/07/18 07:57:08;;;;;;;5.25;3.17;;;;;;;26.46;74.63;95158.44;5025551;28;20121;-93
2022/07/18 07:59:34;;;;;;;4.57;3.00;;;;;;;26.16;71.58;95162.34;5024140;28;20025;-90
2022/07/18 08:02:02;;;;;;;6.30;3.05;;;;;;;26.18;73.51;95160.16;5038805;28;20021;-91
2022/07/18 08:04:30;;;;;;;12.32;3.08;;;;;;;26.39;66.93;95165.19;5028565;28;20021;-90
2022/07/18 08:06:58;;;;;;;5.80;2.92;;;;;;;26.37;67.29;95156.72;5018993;28;20021;-92
2022/07/18 08:09:31;;;;;;;4.25;2.78;;;;;;;26.75;65.49;95156.34;5003744;28;20033;-95
2022/07/18 08:11:59;;;;;;;5.55;3.08;;;;;;;26.66;65.44;95149.25;5004366;28;20439;-94
2022/07/18 08:14:35;;;;;;;;;;;;;;;;;;;;;
2022/07/18 08:17:10;;;;;;;;;;;;;;;;;;;;;
2022/07/18 08:19:39;;;;;;;8.70;3.17;;;;;;;26.85;66.48;95146.94;5020438;28;20018;-93
2022/07/18 08:22:15;;;;;;;;;;;;;;;;;;;;;
2022/07/18 08:24:43;;;;;;;6.03;2.97;;;;;;;26.73;63.43;95159.38;5020376;28;20014;-93
2022/07/18 08:27:13;;;;;;;8.43;2.95;;;;;;;26.99;62.65;95163.41;5003082;28;20034;-93
2022/07/18 08:29:39;;;;;;;4.90;2.83;;;;;;;27.03;61.70;95158.84;5019365;28;20037;-93
2022/07/18 08:32:08;;;;;;;10.50;2.97;;;;;;;27.08;63.00;95155.09;5020186;28;20432;-93
2022/07/18 08:34:33;;;;;;;4.40;2.72;;;;;;;26.71;62.00;95155.50;5020082;28;20030;-94
2022/07/18 08:37:02;;;;;;;7.97;3.20;;;;;;;26.53;62.91;95163.94;5019191;28;20451;-94
2022/07/18 08:39:41;;;;;;;;;;;;;;;;;;;;;
2022/07/18 08:42:17;;;;;;;;;;;;;;;;;;;;;
2022/07/18 08:44:52;;;;;;;7.13;3.00;;;;;;;27.67;65.34;95165.81;5018959;28;20030;-94
2022/07/18 08:47:19;;;;;;;5.65;4.00;;;;;;;27.07;61.42;95164.31;5019947;28;20518;-94
2022/07/18 08:49:45;;;;;;;6.65;2.97;;;;;;;27.51;62.69;95163.22;5003144;28;20029;-93
2022/07/18 08:52:18;;;;;;;7.47;2.75;;;;;;;27.74;65.94;95167.84;5020093;28;20386;-93
2022/07/18 08:54:53;;;;;;;5.15;3.20;;;;;;;27.66;57.91;95173.13;5003773;28;20022;-95
2022/07/18 08:57:28;;;;;;;;;;;;;;;;;;;;;
2022/07/18 08:59:56;;;;;;;4.78;2.90;;;;;;;27.62;56.15;95169.59;5018773;28;20342;-94
2022/07/18 09:02:27;;;;;;;4.05;2.58;;;;;;;27.58;56.97;95165.28;5018838;28;20109;-93
2022/07/18 09:05:03;;;;;;;4.78;2.80;;;;;;;27.93;56.60;95173.19;5002479;28;20374;-93
2022/07/18 09:07:32;;;;;;;7.55;2.72;;;;;;;27.80;55.53;95167.19;5018144;28;20021;-94
2022/07/18 09:10:07;;;;;;;5.40;2.97;;;;;;;27.99;54.95;95170.97;5019183;28;20398;-94
2022/07/18 09:12:37;;;;;;;4.10;2.80;;;;;;;28.08;54.66;95165.31;5018471;28;20025;-94
2022/07/18 09:15:15;;;;;;;4.13;2.63;;;;;;;27.99;55.06;95164.78;5002833;28;20121;-95
2022/07/18 09:17:50;;;;;;;;;;;;;;;;;;;;;
2022/07/18 09:20:19;;;;;;;4.07;2.58;;;;;;;28.26;57.46;95154.81;5018522;28;20029;-94
2022/07/18 09:22:57;;;;;;;4.38;2.80;;;;;;;28.25;54.00;95157.91;5002497;28;20068;-94
2022/07/18 09:25:24;;;;;;;3.40;2.13;;;;;;;28.60;54.28;95167.63;5003370;28;20427;-94
2022/07/18 09:27:55;;;;;;;7.80;2.67;;;;;;;28.40;52.85;95170.44;5019709;28;20438;-93
2022/07/18 09:30:33;;;;;;;5.63;2.53;;;;;;;28.06;52.66;95173.75;5018074;28;20029;-94
2022/07/18 09:33:04;;;;;;;4.63;2.70;;;;;;;28.50;53.14;95171.72;5018218;28;20427;-96
2022/07/18 09:35:44;;;;;;;;;;;;;;;;;;;;;
2022/07/18 09:38:15;;;;;;;4.90;2.78;;;;;;;28.50;54.83;95163.63;5019022;28;20436;-95
2022/07/18 09:40:43;;;;;;;4.80;2.50;;;;;;;28.79;52.62;95170.19;5001603;28;20026;-94
2022/07/18 09:43:32;;;;;;;9.57;2.72;;;;;;;28.75;51.28;95168.59;5002023;28;20359;-94
2022/07/18 09:46:11;;;;;;;12.82;3.20;;;;;;;28.89;50.22;95173.41;5002648;28;20041;-95
2022/07/18 09:49:03;;;;;;;;;;;;;;;;;;;;;
2022/07/18 09:51:34;;;;;;;6.18;3.30;;;;;;;28.45;50.08;95177.44;5018051;28;20026;-95
2022/07/18 09:54:20;;;;;;;4.95;3.10;;;;;;;28.49;50.16;95175.56;5017682;28;20453;-94
2022/07/18 09:56:48;;;;;;;5.28;2.90;;;;;;;28.54;52.19;95175.25;5001052;28;20077;-93
2022/07/18 09:59:22;;;;;;;5.07;2.95;;;;;;;28.88;51.10;95163.75;5017610;28;20120;-94
2022/07/18 10:05:09;;;;;;;7.38;3.10;;;;;;;29.26;50.77;95166.50;5018387;28;20164;-94
2022/07/18 10:11:00;;;;;;;4.57;2.97;;;;;;;29.08;50.43;95163.63;5018426;28;20390;-91
2022/07/18 10:13:30;;;;;;;7.65;2.80;;;;;;;29.31;50.50;95160.78;5019983;28;20033;-90
2022/07/18 10:15:56;;;;;;;5.10;3.33;;;;;;;29.25;48.63;95162.25;5013112;28;20037;-90
2022/07/18 10:18:25;;;;;;;6.20;3.60;;;;;;;28.89;49.01;95159.94;5019708;28;20029;-91
2022/07/18 10:20:54;;;;;;;6.20;3.42;;;;;;;28.97;51.01;95152.69;5037469;28;20320;-91
2022/07/18 10:23:44;;;;;;;9.20;3.55;;;;;;;29.47;51.28;95149.78;5036045;28;20324;-90
2022/07/18 10:26:20;;;;;;;4.85;3.33;;;;;;;29.30;51.68;95153.84;5036247;28;20426;-90
2022/07/18 10:29:00;;;;;;;4.57;3.45;;;;;;;29.27;50.33;95158.06;5020130;28;20123;-91
2022/07/18 10:32:08;;;;;;;6.45;3.13;;;;;;;29.59;50.77;95149.53;5036265;28;20025;-90
2022/07/18 10:35:01;;;;;;;5.55;3.03;;;;;;;29.89;49.45;95151.31;4979316;28;20176;-90
2022/07/18 10:37:26;;;;;;;4.38;3.15;;;;;;;29.06;49.85;95147.81;4981569;28;20065;-90
2022/07/18 10:39:54;;;;;;;6.38;3.25;;;;;;;29.24;50.17;95153.41;5016310;28;20037;-90
2022/07/18 10:42:24;;;;;;;6.45;3.45;;;;;;;29.14;49.59;95152.16;5035948;28;20461;-90
2022/07/18 10:44:53;;;;;;;5.25;3.65;;;;;;;29.40;49.50;95139.66;5035820;28;20033;-90
2022/07/18 10:47:24;;;;;;;6.88;3.25;;;;;;;29.55;50.62;95137.91;5019948;28;20061;-91
2022/07/18 10:49:56;;;;;;;7.63;3.08;;;;;;;29.56;50.19;95136.00;5020596;28;20029;-91
2022/07/18 10:52:28;;;;;;;8.35;3.03;;;;;;;30.02;50.90;95132.13;5036314;28;20078;-90
2022/07/18 10:55:05;;;;;;;3.15;2.85;;;;;;;29.69;50.05;95134.56;5036743;28;20022;-90
2022/07/18 10:57:52;;;;;;;;;;;;;;;;;;;;;
2022/07/18 11:00:28;;;;;;;5.57;3.15;;;;;;;30.12;49.89;95136.06;5036081;28;20018;-89
2022/07/18 11:03:12;;;;;;;5.53;2.67;;;;;;;30.19;50.42;95138.84;5035875;28;20029;-91
2022/07/18 11:05:54;;;;;;;4.30;2.80;;;;;;;29.79;50.75;95135.81;5035651;28;20477;-90
2022/07/18 11:08:23;;;;;;;5.90;2.70;;;;;;;30.03;50.09;95133.69;5019647;28;20029;-91
2022/07/18 11:11:02;;;;;;;8.18;2.70;;;;;;;29.65;51.26;95119.50;5019945;28;20033;-91
2022/07/18 11:13:28;;;;;;;7.55;3.17;;;;;;;30.26;50.16;95117.25;5036598;28;20037;-90
2022/07/18 11:16:10;;;;;;;3.70;2.90;;;;;;;30.20;48.65;95118.75;5035440;28;20025;-91
2022/07/18 11:18:44;;;;;;;6.53;3.20;;;;;;;30.13;49.53;95116.78;5036652;28;20048;-92
2022/07/18 11:21:21;;;;;;;5.40;2.90;;;;;;;29.79;51.03;95114.22;5036595;28;20061;-90
2022/07/18 11:23:49;;;;;;;5.45;2.88;;;;;;;30.41;50.53;95118.13;5035376;28;20445;-90
2022/07/18 11:26:19;;;;;;;6.00;2.92;;;;;;;30.26;48.96;95117.25;5035398;28;20052;-90
2022/07/18 11:28:48;;;;;;;3.85;2.65;;;;;;;30.32;50.67;95117.66;5036457;28;20025;-89
2022/07/18 11:31:24;;;;;;;4.93;2.75;;;;;;;30.42;48.01;95121.59;5040979;28;20025;-90
2022/07/18 11:33:53;;;;;;;4.38;2.72;;;;;;;30.15;47.45;95111.78;5039821;28;20025;-91
2022/07/18 11:36:31;;;;;;;;;;;;;;;;;;;;;
2022/07/18 11:39:13;;;;;;;4.63;2.95;;;;;;;29.73;48.40;95115.69;5039416;28;20019;-90
2022/07/18 11:41:40;;;;;;;5.70;2.97;;;;;;;29.44;50.19;95110.84;5040433;28;20029;-90
2022/07/18 11:44:15;;;;;;;5.00;2.92;;;;;;;28.97;49.79;95112.25;5023177;28;20057;-91
2022/07/18 11:46:41;;;;;;;5.43;3.05;;;;;;;29.14;49.59;95103.59;5039192;28;20462;-90
2022/07/18 11:49:07;;;;;;;5.05;2.63;;;;;;;30.04;49.39;95105.53;5039581;28;20045;-89
2022/07/18 11:51:42;;;;;;;5.43;3.22;;;;;;;29.65;48.86;95104.06;5022839;28;20493;-89
2022/07/18 11:54:08;;;;;;;6.75;3.28;;;;;;;29.67;48.98;95107.16;5040167;28;20025;-91
2022/07/18 11:56:51;;;;;;;9.23;3.15;;;;;;;29.96;49.30;95091.16;5039278;28;20035;-91
2022/07/18 11:59:30;;;;;;;;;;;;;;;;;;;;;
2022/07/18 12:02:03;;;;;;;6.25;3.00;;;;;;;29.82;48.69;95091.84;5033891;28;20439;-91
2022/07/18 12:04:37;;;;;;;4.47;3.17;;;;;;;30.14;49.43;95095.97;5019391;28;20022;-90
2022/07/18 12:07:22;;;;;;;5.85;3.13;;;;;;;30.26;49.14;95092.94;5003441;28;20509;-91
2022/07/18 12:09:59;;;;;;;;;;;;;;;;;;;;;
2022/07/18 12:12:33;;;;;;;4.30;2.60;;;;;;;30.78;48.67;95083.94;5019000;28;20447;-90
2022/07/18 12:15:08;;;;;;;6.22;2.50;;;;;;;31.03;48.80;95077.81;5018704;28;20112;-90
2022/07/18 12:17:45;;;;;;;4.72;2.60;;;;;;;31.20;46.66;95075.53;5019182;28;20068;-90
2022/07/18 12:20:16;;;;;;;4.43;2.53;;;;;;;31.24;46.19;95077.13;5018344;28;20339;-90